sensor_id;sensor_type;location;lat;lon;timestamp;temperature;humidity
27492;DHT22;14927;51.210;6.838;2023-02-26T00:00:59;7.30;46.70
27492;DHT22;14927;51.210;6.838;2023-02-26T00:03:48;7.30;46.90
27492;DHT22;14927;51.210;6.838;2023-02-26T00:06:38;7.30;47.00
27492;DHT22;14927;51.210;6.838;2023-02-26T00:09:35;7.30;47.10
27492;DHT22;14927;51.210;6.838;2023-02-26T00:12:23;7.30;47.10
27492;DHT22;14927;51.210;6.838;2023-02-26T00:15:10;7.30;47.20
27492;DHT22;14927;51.210;6.838;2023-02-26T00:18:03;7.30;47.30
27492;DHT22;14927;51.210;6.838;2023-02-26T00:20:50;7.40;47.40
27492;DHT22;14927;51.210;6.838;2023-02-26T00:23:35;7.20;47.30
27492;DHT22;14927;51.210;6.838;2023-02-26T00:26:20;7.30;47.40
27492;DHT22;14927;51.210;6.838;2023-02-26T00:29:06;7.20;47.40
27492;DHT22;14927;51.210;6.838;2023-02-26T00:31:52;7.20;47.50
27492;DHT22;14927;51.210;6.838;2023-02-26T00:34:37;7.20;47.60
27492;DHT22;14927;51.210;6.838;2023-02-26T00:40:22;7.20;48.00
27492;DHT22;14927;51.210;6.838;2023-02-26T00:43:23;7.10;47.90
27492;DHT22;14927;51.210;6.838;2023-02-26T00:46:22;7.10;48.00
27492;DHT22;14927;51.210;6.838;2023-02-26T00:55:46;7.10;48.40
27492;DHT22;14927;51.210;6.838;2023-02-26T00:58:30;7.20;48.30
27492;DHT22;14927;51.210;6.838;2023-02-26T01:01:15;7.10;48.40
27492;DHT22;14927;51.210;6.838;2023-02-26T01:04:00;7.00;48.50
27492;DHT22;14927;51.210;6.838;2023-02-26T01:06:50;7.10;48.60
27492;DHT22;14927;51.210;6.838;2023-02-26T01:09:37;7.00;48.60
27492;DHT22;14927;51.210;6.838;2023-02-26T01:12:22;7.10;48.70
27492;DHT22;14927;51.210;6.838;2023-02-26T01:15:07;7.10;48.80
27492;DHT22;14927;51.210;6.838;2023-02-26T01:17:59;7.10;48.90
27492;DHT22;14927;51.210;6.838;2023-02-26T01:20:52;7.00;48.90
27492;DHT22;14927;51.210;6.838;2023-02-26T01:23:44;7.00;49.00
27492;DHT22;14927;51.210;6.838;2023-02-26T01:26:30;7.20;49.20
27492;DHT22;14927;51.210;6.838;2023-02-26T01:29:15;7.00;49.10
27492;DHT22;14927;51.210;6.838;2023-02-26T01:44:22;6.90;49.40
27492;DHT22;14927;51.210;6.838;2023-02-26T01:47:40;6.90;49.50
27492;DHT22;14927;51.210;6.838;2023-02-26T01:50:26;6.90;49.90
27492;DHT22;14927;51.210;6.838;2023-02-26T01:53:19;6.90;49.30
27492;DHT22;14927;51.210;6.838;2023-02-26T01:56:17;6.90;49.60
27492;DHT22;14927;51.210;6.838;2023-02-26T01:59:04;6.90;49.80
27492;DHT22;14927;51.210;6.838;2023-02-26T02:01:51;6.80;49.80
27492;DHT22;14927;51.210;6.838;2023-02-26T02:04:39;7.00;50.00
27492;DHT22;14927;51.210;6.838;2023-02-26T02:07:25;6.80;50.60
27492;DHT22;14927;51.210;6.838;2023-02-26T02:10:10;6.90;50.10
27492;DHT22;14927;51.210;6.838;2023-02-26T02:13:04;6.80;50.10
27492;DHT22;14927;51.210;6.838;2023-02-26T02:22:31;6.90;50.20
27492;DHT22;14927;51.210;6.838;2023-02-26T02:33:09;6.80;50.30
27492;DHT22;14927;51.210;6.838;2023-02-26T02:35:41;6.80;50.20
27492;DHT22;14927;51.210;6.838;2023-02-26T02:38:52;6.80;50.20
27492;DHT22;14927;51.210;6.838;2023-02-26T02:41:46;6.80;50.40
27492;DHT22;14927;51.210;6.838;2023-02-26T02:44:36;6.80;50.30
27492;DHT22;14927;51.210;6.838;2023-02-26T02:47:23;6.80;50.30
27492;DHT22;14927;51.210;6.838;2023-02-26T02:50:20;6.80;50.60
27492;DHT22;14927;51.210;6.838;2023-02-26T02:53:21;6.80;50.20
27492;DHT22;14927;51.210;6.838;2023-02-26T02:59:43;6.80;50.40
27492;DHT22;14927;51.210;6.838;2023-02-26T03:05:58;6.70;50.30
27492;DHT22;14927;51.210;6.838;2023-02-26T03:08:44;6.60;50.10
27492;DHT22;14927;51.210;6.838;2023-02-26T03:11:31;6.60;50.10
27492;DHT22;14927;51.210;6.838;2023-02-26T03:14:15;6.60;50.10
27492;DHT22;14927;51.210;6.838;2023-02-26T03:23:23;6.50;50.00
27492;DHT22;14927;51.210;6.838;2023-02-26T03:26:23;6.50;50.00
27492;DHT22;14927;51.210;6.838;2023-02-26T03:32:26;6.40;49.80
27492;DHT22;14927;51.210;6.838;2023-02-26T03:35:29;6.40;49.80
27492;DHT22;14927;51.210;6.838;2023-02-26T03:38:52;6.40;49.80
27492;DHT22;14927;51.210;6.838;2023-02-26T03:42:02;6.30;49.80
27492;DHT22;14927;51.210;6.838;2023-02-26T03:44:58;6.30;49.80
27492;DHT22;14927;51.210;6.838;2023-02-26T03:47:50;6.30;49.80
27492;DHT22;14927;51.210;6.838;2023-02-26T03:50:47;6.20;49.80
27492;DHT22;14927;51.210;6.838;2023-02-26T03:54:03;6.20;50.10
27492;DHT22;14927;51.210;6.838;2023-02-26T03:57:13;6.20;49.80
27492;DHT22;14927;51.210;6.838;2023-02-26T03:59:57;6.30;49.80
27492;DHT22;14927;51.210;6.838;2023-02-26T04:05:42;6.20;49.90
27492;DHT22;14927;51.210;6.838;2023-02-26T04:08:31;6.30;49.90
27492;DHT22;14927;51.210;6.838;2023-02-26T04:11:21;6.20;49.90
27492;DHT22;14927;51.210;6.838;2023-02-26T04:14:10;6.20;50.00
27492;DHT22;14927;51.210;6.838;2023-02-26T04:16:55;6.20;50.10
27492;DHT22;14927;51.210;6.838;2023-02-26T04:19:39;6.20;50.20
27492;DHT22;14927;51.210;6.838;2023-02-26T04:22:24;6.20;50.30
27492;DHT22;14927;51.210;6.838;2023-02-26T04:25:09;6.20;50.30
27492;DHT22;14927;51.210;6.838;2023-02-26T04:27:53;6.20;50.50
27492;DHT22;14927;51.210;6.838;2023-02-26T04:30:38;6.20;50.60
27492;DHT22;14927;51.210;6.838;2023-02-26T04:33:23;6.20;50.70
27492;DHT22;14927;51.210;6.838;2023-02-26T04:36:09;6.20;50.80
27492;DHT22;14927;51.210;6.838;2023-02-26T04:38:57;6.20;50.90
27492;DHT22;14927;51.210;6.838;2023-02-26T04:41:41;6.10;50.90
27492;DHT22;14927;51.210;6.838;2023-02-26T04:44:26;6.10;51.00
27492;DHT22;14927;51.210;6.838;2023-02-26T04:47:10;6.30;51.20
27492;DHT22;14927;51.210;6.838;2023-02-26T04:49:55;6.10;51.20
27492;DHT22;14927;51.210;6.838;2023-02-26T04:52:40;6.10;51.30
27492;DHT22;14927;51.210;6.838;2023-02-26T04:55:25;6.10;51.30
27492;DHT22;14927;51.210;6.838;2023-02-26T04:58:09;6.00;51.40
27492;DHT22;14927;51.210;6.838;2023-02-26T05:00:56;6.00;51.50
27492;DHT22;14927;51.210;6.838;2023-02-26T05:03:41;6.00;51.60
27492;DHT22;14927;51.210;6.838;2023-02-26T05:06:25;6.00;51.60
27492;DHT22;14927;51.210;6.838;2023-02-26T05:09:10;6.00;51.70
27492;DHT22;14927;51.210;6.838;2023-02-26T05:11:55;6.00;51.80
27492;DHT22;14927;51.210;6.838;2023-02-26T05:14:39;5.90;51.80
27492;DHT22;14927;51.210;6.838;2023-02-26T05:17:24;5.90;51.90
27492;DHT22;14927;51.210;6.838;2023-02-26T05:20:11;5.90;52.00
27492;DHT22;14927;51.210;6.838;2023-02-26T05:22:56;5.90;52.00
27492;DHT22;14927;51.210;6.838;2023-02-26T05:25:40;5.90;52.00
27492;DHT22;14927;51.210;6.838;2023-02-26T05:28:25;5.80;52.00
27492;DHT22;14927;51.210;6.838;2023-02-26T05:31:12;5.80;52.10
27492;DHT22;14927;51.210;6.838;2023-02-26T05:33:56;5.80;52.10
27492;DHT22;14927;51.210;6.838;2023-02-26T05:36:41;5.80;52.10
27492;DHT22;14927;51.210;6.838;2023-02-26T05:39:27;5.70;52.10
27492;DHT22;14927;51.210;6.838;2023-02-26T05:42:12;5.70;52.10
27492;DHT22;14927;51.210;6.838;2023-02-26T05:44:58;5.70;52.20
27492;DHT22;14927;51.210;6.838;2023-02-26T05:47:43;5.90;52.20
27492;DHT22;14927;51.210;6.838;2023-02-26T05:50:28;5.60;52.10
27492;DHT22;14927;51.210;6.838;2023-02-26T05:53:13;5.70;52.10
27492;DHT22;14927;51.210;6.838;2023-02-26T05:55:58;5.60;52.10
27492;DHT22;14927;51.210;6.838;2023-02-26T05:58:43;5.60;52.10
27492;DHT22;14927;51.210;6.838;2023-02-26T06:01:28;5.60;52.20
27492;DHT22;14927;51.210;6.838;2023-02-26T06:04:12;5.50;52.10
27492;DHT22;14927;51.210;6.838;2023-02-26T06:06:57;5.50;52.10
27492;DHT22;14927;51.210;6.838;2023-02-26T06:09:42;5.70;52.20
27492;DHT22;14927;51.210;6.838;2023-02-26T06:12:30;5.40;52.10
27492;DHT22;14927;51.210;6.838;2023-02-26T06:15:14;5.40;52.10
27492;DHT22;14927;51.210;6.838;2023-02-26T06:17:59;5.40;52.10
27492;DHT22;14927;51.210;6.838;2023-02-26T06:20:43;5.40;52.10
27492;DHT22;14927;51.210;6.838;2023-02-26T06:23:28;5.40;52.10
27492;DHT22;14927;51.210;6.838;2023-02-26T06:26:31;5.40;52.10
27492;DHT22;14927;51.210;6.838;2023-02-26T06:29:39;5.40;52.20
27492;DHT22;14927;51.210;6.838;2023-02-26T06:32:30;5.40;52.20
27492;DHT22;14927;51.210;6.838;2023-02-26T06:35:16;5.40;52.10
27492;DHT22;14927;51.210;6.838;2023-02-26T06:38:34;5.30;52.10
27492;DHT22;14927;51.210;6.838;2023-02-26T06:41:36;5.10;52.10
27492;DHT22;14927;51.210;6.838;2023-02-26T06:44:21;5.30;52.10
27492;DHT22;14927;51.210;6.838;2023-02-26T06:47:06;5.30;52.20
27492;DHT22;14927;51.210;6.838;2023-02-26T06:49:51;5.30;52.30
27492;DHT22;14927;51.210;6.838;2023-02-26T06:52:36;5.20;52.30
27492;DHT22;14927;51.210;6.838;2023-02-26T06:55:23;5.20;52.30
27492;DHT22;14927;51.210;6.838;2023-02-26T06:58:11;5.20;52.40
27492;DHT22;14927;51.210;6.838;2023-02-26T07:00:56;5.10;52.40
27492;DHT22;14927;51.210;6.838;2023-02-26T07:03:41;5.20;52.50
27492;DHT22;14927;51.210;6.838;2023-02-26T07:06:26;5.30;52.60
27492;DHT22;14927;51.210;6.838;2023-02-26T07:09:11;5.20;52.60
27492;DHT22;14927;51.210;6.838;2023-02-26T07:11:55;5.20;52.50
27492;DHT22;14927;51.210;6.838;2023-02-26T07:14:40;5.40;52.70
27492;DHT22;14927;51.210;6.838;2023-02-26T07:17:26;5.40;52.70
27492;DHT22;14927;51.210;6.838;2023-02-26T07:20:11;5.20;52.60
27492;DHT22;14927;51.210;6.838;2023-02-26T07:22:57;5.10;52.60
27492;DHT22;14927;51.210;6.838;2023-02-26T07:25:41;5.20;52.60
27492;DHT22;14927;51.210;6.838;2023-02-26T07:28:29;5.20;52.70
27492;DHT22;14927;51.210;6.838;2023-02-26T07:31:13;5.20;52.70
27492;DHT22;14927;51.210;6.838;2023-02-26T07:33:59;5.20;52.80
27492;DHT22;14927;51.210;6.838;2023-02-26T07:36:44;5.20;52.80
27492;DHT22;14927;51.210;6.838;2023-02-26T07:39:28;5.20;52.70
27492;DHT22;14927;51.210;6.838;2023-02-26T07:42:13;5.20;52.70
27492;DHT22;14927;51.210;6.838;2023-02-26T07:44:58;5.00;52.60
27492;DHT22;14927;51.210;6.838;2023-02-26T07:47:46;5.20;52.70
27492;DHT22;14927;51.210;6.838;2023-02-26T07:50:30;5.20;52.70
27492;DHT22;14927;51.210;6.838;2023-02-26T07:53:16;5.30;52.90
27492;DHT22;14927;51.210;6.838;2023-02-26T07:56:01;5.10;52.90
27492;DHT22;14927;51.210;6.838;2023-02-26T07:58:47;5.30;52.80
27492;DHT22;14927;51.210;6.838;2023-02-26T08:01:32;5.40;52.80
27492;DHT22;14927;51.210;6.838;2023-02-26T08:04:23;5.50;52.80
27492;DHT22;14927;51.210;6.838;2023-02-26T08:07:07;5.40;52.80
27492;DHT22;14927;51.210;6.838;2023-02-26T08:09:55;5.40;52.70
27492;DHT22;14927;51.210;6.838;2023-02-26T08:12:40;5.50;52.60
27492;DHT22;14927;51.210;6.838;2023-02-26T08:15:25;5.50;52.60
27492;DHT22;14927;51.210;6.838;2023-02-26T08:18:13;5.50;52.50
27492;DHT22;14927;51.210;6.838;2023-02-26T08:21:00;5.60;52.50
27492;DHT22;14927;51.210;6.838;2023-02-26T08:23:48;5.60;52.50
27492;DHT22;14927;51.210;6.838;2023-02-26T08:26:36;5.60;52.50
27492;DHT22;14927;51.210;6.838;2023-02-26T08:29:21;5.70;52.50
27492;DHT22;14927;51.210;6.838;2023-02-26T08:32:08;5.70;52.40
27492;DHT22;14927;51.210;6.838;2023-02-26T08:34:53;5.60;52.20
27492;DHT22;14927;51.210;6.838;2023-02-26T08:37:38;5.90;52.20
27492;DHT22;14927;51.210;6.838;2023-02-26T08:40:24;5.90;51.80
27492;DHT22;14927;51.210;6.838;2023-02-26T08:43:13;5.90;51.80
27492;DHT22;14927;51.210;6.838;2023-02-26T08:45:58;6.00;51.50
27492;DHT22;14927;51.210;6.838;2023-02-26T08:48:44;6.00;51.70
27492;DHT22;14927;51.210;6.838;2023-02-26T08:51:32;6.10;51.60
27492;DHT22;14927;51.210;6.838;2023-02-26T08:54:18;6.10;51.20
27492;DHT22;14927;51.210;6.838;2023-02-26T08:57:05;6.00;51.10
27492;DHT22;14927;51.210;6.838;2023-02-26T08:59:50;6.10;51.10
27492;DHT22;14927;51.210;6.838;2023-02-26T09:02:38;6.20;51.00
27492;DHT22;14927;51.210;6.838;2023-02-26T09:05:26;6.20;50.80
27492;DHT22;14927;51.210;6.838;2023-02-26T09:08:12;6.30;50.70
27492;DHT22;14927;51.210;6.838;2023-02-26T09:11:00;6.30;50.50
27492;DHT22;14927;51.210;6.838;2023-02-26T09:13:46;6.30;50.30
27492;DHT22;14927;51.210;6.838;2023-02-26T09:16:31;6.40;50.40
27492;DHT22;14927;51.210;6.838;2023-02-26T09:19:18;6.40;50.20
27492;DHT22;14927;51.210;6.838;2023-02-26T09:22:05;6.50;50.10
27492;DHT22;14927;51.210;6.838;2023-02-26T09:24:50;6.50;49.90
27492;DHT22;14927;51.210;6.838;2023-02-26T09:30:55;6.60;49.40
27492;DHT22;14927;51.210;6.838;2023-02-26T09:33:39;6.60;49.10
27492;DHT22;14927;51.210;6.838;2023-02-26T09:36:24;6.60;49.20
27492;DHT22;14927;51.210;6.838;2023-02-26T09:39:10;6.70;49.10
27492;DHT22;14927;51.210;6.838;2023-02-26T09:41:58;6.80;48.90
27492;DHT22;14927;51.210;6.838;2023-02-26T09:44:50;6.80;48.60
27492;DHT22;14927;51.210;6.838;2023-02-26T09:47:42;6.80;48.40
27492;DHT22;14927;51.210;6.838;2023-02-26T09:50:44;6.90;48.40
27492;DHT22;14927;51.210;6.838;2023-02-26T09:53:38;7.00;48.10
27492;DHT22;14927;51.210;6.838;2023-02-26T09:56:25;7.10;48.10
27492;DHT22;14927;51.210;6.838;2023-02-26T09:59:11;7.10;48.00
27492;DHT22;14927;51.210;6.838;2023-02-26T10:02:01;7.20;47.80
27492;DHT22;14927;51.210;6.838;2023-02-26T10:05:07;7.20;47.50
27492;DHT22;14927;51.210;6.838;2023-02-26T10:07:58;7.30;47.30
27492;DHT22;14927;51.210;6.838;2023-02-26T10:11:28;7.20;47.10
27492;DHT22;14927;51.210;6.838;2023-02-26T10:17:33;7.50;46.60
27492;DHT22;14927;51.210;6.838;2023-02-26T10:20:36;7.30;46.10
27492;DHT22;14927;51.210;6.838;2023-02-26T10:23:43;7.60;46.10
27492;DHT22;14927;51.210;6.838;2023-02-26T10:26:44;7.70;46.00
27492;DHT22;14927;51.210;6.838;2023-02-26T10:29:49;7.70;45.80
27492;DHT22;14927;51.210;6.838;2023-02-26T10:32:58;7.80;45.00
27492;DHT22;14927;51.210;6.838;2023-02-26T10:36:13;7.80;45.10
27492;DHT22;14927;51.210;6.838;2023-02-26T10:42:32;7.90;44.80
27492;DHT22;14927;51.210;6.838;2023-02-26T10:45:36;7.70;44.90
27492;DHT22;14927;51.210;6.838;2023-02-26T10:51:49;8.00;45.00
27492;DHT22;14927;51.210;6.838;2023-02-26T10:54:40;8.10;44.80
27492;DHT22;14927;51.210;6.838;2023-02-26T10:57:36;8.00;44.30
27492;DHT22;14927;51.210;6.838;2023-02-26T11:00:26;8.20;44.20
27492;DHT22;14927;51.210;6.838;2023-02-26T11:03:18;8.30;44.20
27492;DHT22;14927;51.210;6.838;2023-02-26T11:06:05;8.40;44.00
27492;DHT22;14927;51.210;6.838;2023-02-26T11:08:53;8.50;44.10
27492;DHT22;14927;51.210;6.838;2023-02-26T11:11:45;8.60;44.00
27492;DHT22;14927;51.210;6.838;2023-02-26T11:14:39;8.70;43.70
27492;DHT22;14927;51.210;6.838;2023-02-26T11:17:28;8.80;43.50
27492;DHT22;14927;51.210;6.838;2023-02-26T11:20:17;8.90;43.20
27492;DHT22;14927;51.210;6.838;2023-02-26T11:23:17;9.10;43.20
27492;DHT22;14927;51.210;6.838;2023-02-26T11:26:13;9.10;42.60
27492;DHT22;14927;51.210;6.838;2023-02-26T11:29:04;9.50;42.20
27492;DHT22;14927;51.210;6.838;2023-02-26T11:31:51;9.40;42.00
27492;DHT22;14927;51.210;6.838;2023-02-26T11:34:38;9.40;41.80
27492;DHT22;14927;51.210;6.838;2023-02-26T11:37:33;9.40;41.60
27492;DHT22;14927;51.210;6.838;2023-02-26T11:40:37;9.60;41.40
27492;DHT22;14927;51.210;6.838;2023-02-26T11:43:35;9.60;40.50
27492;DHT22;14927;51.210;6.838;2023-02-26T11:46:25;9.70;40.10
27492;DHT22;14927;51.210;6.838;2023-02-26T11:49:28;9.70;40.40
27492;DHT22;14927;51.210;6.838;2023-02-26T11:52:26;9.90;39.00
27492;DHT22;14927;51.210;6.838;2023-02-26T11:55:27;10.20;39.00
27492;DHT22;14927;51.210;6.838;2023-02-26T11:58:22;10.30;39.20
27492;DHT22;14927;51.210;6.838;2023-02-26T12:01:15;10.50;39.20
27492;DHT22;14927;51.210;6.838;2023-02-26T12:04:13;10.60;38.90
27492;DHT22;14927;51.210;6.838;2023-02-26T12:07:01;10.80;39.10
27492;DHT22;14927;51.210;6.838;2023-02-26T12:09:49;11.00;38.90
27492;DHT22;14927;51.210;6.838;2023-02-26T12:15:59;11.20;37.50
27492;DHT22;14927;51.210;6.838;2023-02-26T12:19:21;11.60;37.00
27492;DHT22;14927;51.210;6.838;2023-02-26T12:22:47;11.80;36.00
27492;DHT22;14927;51.210;6.838;2023-02-26T12:29:04;12.30;35.60
27492;DHT22;14927;51.210;6.838;2023-02-26T12:32:31;12.50;35.70
27492;DHT22;14927;51.210;6.838;2023-02-26T12:35:34;12.80;34.40
27492;DHT22;14927;51.210;6.838;2023-02-26T12:38:47;13.10;34.50
27492;DHT22;14927;51.210;6.838;2023-02-26T12:42:12;13.30;33.30
27492;DHT22;14927;51.210;6.838;2023-02-26T12:48:45;14.10;34.70
27492;DHT22;14927;51.210;6.838;2023-02-26T12:55:00;14.40;34.50
27492;DHT22;14927;51.210;6.838;2023-02-26T12:58:29;14.60;32.00
27492;DHT22;14927;51.210;6.838;2023-02-26T13:08:35;15.40;30.90
27492;DHT22;14927;51.210;6.838;2023-02-26T13:18:08;16.20;29.70
27492;DHT22;14927;51.210;6.838;2023-02-26T13:21:03;16.40;30.00
27492;DHT22;14927;51.210;6.838;2023-02-26T13:24:01;16.60;29.70
27492;DHT22;14927;51.210;6.838;2023-02-26T13:26:52;16.80;29.00
27492;DHT22;14927;51.210;6.838;2023-02-26T13:29:46;17.00;28.90
27492;DHT22;14927;51.210;6.838;2023-02-26T13:32:50;17.20;28.10
27492;DHT22;14927;51.210;6.838;2023-02-26T13:35:41;17.30;28.50
27492;DHT22;14927;51.210;6.838;2023-02-26T13:51:27;18.70;27.50
27492;DHT22;14927;51.210;6.838;2023-02-26T13:57:50;19.30;26.30
27492;DHT22;14927;51.210;6.838;2023-02-26T14:00:33;19.60;26.90
27492;DHT22;14927;51.210;6.838;2023-02-26T14:03:46;20.00;25.00
27492;DHT22;14927;51.210;6.838;2023-02-26T14:06:43;20.30;24.60
27492;DHT22;14927;51.210;6.838;2023-02-26T14:12:35;20.90;24.70
27492;DHT22;14927;51.210;6.838;2023-02-26T14:15:38;21.10;24.40
27492;DHT22;14927;51.210;6.838;2023-02-26T14:18:41;21.30;23.70
27492;DHT22;14927;51.210;6.838;2023-02-26T14:25:00;21.60;23.70
27492;DHT22;14927;51.210;6.838;2023-02-26T14:31:17;21.80;22.40
27492;DHT22;14927;51.210;6.838;2023-02-26T14:34:12;22.00;23.00
27492;DHT22;14927;51.210;6.838;2023-02-26T14:37:01;22.00;23.50
27492;DHT22;14927;51.210;6.838;2023-02-26T14:40:02;22.20;22.90
27492;DHT22;14927;51.210;6.838;2023-02-26T14:44:02;22.40;23.00
27492;DHT22;14927;51.210;6.838;2023-02-26T14:46:59;22.60;21.60
27492;DHT22;14927;51.210;6.838;2023-02-26T14:49:45;23.00;22.70
27492;DHT22;14927;51.210;6.838;2023-02-26T15:02:33;23.30;19.70
27492;DHT22;14927;51.210;6.838;2023-02-26T15:05:42;23.00;20.00
27492;DHT22;14927;51.210;6.838;2023-02-26T15:11:55;22.10;19.80
27492;DHT22;14927;51.210;6.838;2023-02-26T15:21:56;20.20;20.50
27492;DHT22;14927;51.210;6.838;2023-02-26T15:25:23;19.60;20.80
27492;DHT22;14927;51.210;6.838;2023-02-26T15:28:28;19.00;21.10
27492;DHT22;14927;51.210;6.838;2023-02-26T15:31:17;18.50;21.30
27492;DHT22;14927;51.210;6.838;2023-02-26T15:34:12;18.00;21.90
27492;DHT22;14927;51.210;6.838;2023-02-26T15:36:58;17.60;22.10
27492;DHT22;14927;51.210;6.838;2023-02-26T15:39:48;17.20;22.40
27492;DHT22;14927;51.210;6.838;2023-02-26T15:42:38;16.70;22.50
27492;DHT22;14927;51.210;6.838;2023-02-26T15:48:24;16.00;23.30
27492;DHT22;14927;51.210;6.838;2023-02-26T15:51:16;15.70;23.70
27492;DHT22;14927;51.210;6.838;2023-02-26T15:54:02;15.30;23.90
27492;DHT22;14927;51.210;6.838;2023-02-26T15:56:48;15.00;24.30
27492;DHT22;14927;51.210;6.838;2023-02-26T15:59:33;14.80;24.60
27492;DHT22;14927;51.210;6.838;2023-02-26T16:02:21;14.40;24.80
27492;DHT22;14927;51.210;6.838;2023-02-26T16:05:11;14.30;25.20
27492;DHT22;14927;51.210;6.838;2023-02-26T16:08:00;14.10;25.40
27492;DHT22;14927;51.210;6.838;2023-02-26T16:10:45;13.90;25.70
27492;DHT22;14927;51.210;6.838;2023-02-26T16:13:32;13.70;25.90
27492;DHT22;14927;51.210;6.838;2023-02-26T16:16:28;13.60;26.00
27492;DHT22;14927;51.210;6.838;2023-02-26T16:19:43;13.40;26.30
27492;DHT22;14927;51.210;6.838;2023-02-26T16:22:39;13.30;26.50
27492;DHT22;14927;51.210;6.838;2023-02-26T16:28:45;13.00;27.00
27492;DHT22;14927;51.210;6.838;2023-02-26T16:31:31;12.90;27.20
27492;DHT22;14927;51.210;6.838;2023-02-26T16:37:33;12.60;27.60
27492;DHT22;14927;51.210;6.838;2023-02-26T16:40:26;12.50;27.80
27492;DHT22;14927;51.210;6.838;2023-02-26T16:43:33;12.40;28.00
27492;DHT22;14927;51.210;6.838;2023-02-26T16:46:41;12.30;28.30
27492;DHT22;14927;51.210;6.838;2023-02-26T16:49:31;12.20;28.50
27492;DHT22;14927;51.210;6.838;2023-02-26T16:52:21;12.10;28.60
27492;DHT22;14927;51.210;6.838;2023-02-26T16:55:11;12.00;28.80
27492;DHT22;14927;51.210;6.838;2023-02-26T16:58:03;11.90;28.90
27492;DHT22;14927;51.210;6.838;2023-02-26T17:00:54;11.90;29.10
27492;DHT22;14927;51.210;6.838;2023-02-26T17:03:51;11.70;29.20
27492;DHT22;14927;51.210;6.838;2023-02-26T17:06:41;11.70;29.30
27492;DHT22;14927;51.210;6.838;2023-02-26T17:09:43;11.60;29.50
27492;DHT22;14927;51.210;6.838;2023-02-26T17:12:45;11.50;29.70
27492;DHT22;14927;51.210;6.838;2023-02-26T17:15:34;11.40;29.80
27492;DHT22;14927;51.210;6.838;2023-02-26T17:18:20;11.40;30.00
27492;DHT22;14927;51.210;6.838;2023-02-26T17:21:05;11.30;30.00
27492;DHT22;14927;51.210;6.838;2023-02-26T17:23:51;11.20;30.00
27492;DHT22;14927;51.210;6.838;2023-02-26T17:26:38;11.10;30.20
27492;DHT22;14927;51.210;6.838;2023-02-26T17:29:32;11.10;30.50
27492;DHT22;14927;51.210;6.838;2023-02-26T17:32:22;11.00;30.70
27492;DHT22;14927;51.210;6.838;2023-02-26T17:35:14;10.90;30.90
27492;DHT22;14927;51.210;6.838;2023-02-26T17:38:03;10.80;31.00
27492;DHT22;14927;51.210;6.838;2023-02-26T17:40:49;10.80;31.20
27492;DHT22;14927;51.210;6.838;2023-02-26T17:43:37;10.70;31.40
27492;DHT22;14927;51.210;6.838;2023-02-26T17:46:25;10.60;31.60
27492;DHT22;14927;51.210;6.838;2023-02-26T17:49:10;10.50;31.80
27492;DHT22;14927;51.210;6.838;2023-02-26T17:51:55;10.50;32.00
27492;DHT22;14927;51.210;6.838;2023-02-26T17:54:40;10.40;32.30
27492;DHT22;14927;51.210;6.838;2023-02-26T17:57:28;10.40;32.40
27492;DHT22;14927;51.210;6.838;2023-02-26T18:00:15;10.30;32.60
27492;DHT22;14927;51.210;6.838;2023-02-26T18:03:03;10.20;32.80
27492;DHT22;14927;51.210;6.838;2023-02-26T18:05:49;10.20;32.90
27492;DHT22;14927;51.210;6.838;2023-02-26T18:08:38;10.10;33.00
27492;DHT22;14927;51.210;6.838;2023-02-26T18:11:23;10.20;33.40
27492;DHT22;14927;51.210;6.838;2023-02-26T18:14:09;10.30;33.20
27492;DHT22;14927;51.210;6.838;2023-02-26T18:16:57;10.00;33.30
27492;DHT22;14927;51.210;6.838;2023-02-26T18:19:42;9.70;33.60
27492;DHT22;14927;51.210;6.838;2023-02-26T18:22:26;9.90;33.80
27492;DHT22;14927;51.210;6.838;2023-02-26T18:25:11;9.80;33.90
27492;DHT22;14927;51.210;6.838;2023-02-26T18:27:56;9.80;34.10
27492;DHT22;14927;51.210;6.838;2023-02-26T18:30:47;9.70;34.30
27492;DHT22;14927;51.210;6.838;2023-02-26T18:33:31;9.70;34.50
27492;DHT22;14927;51.210;6.838;2023-02-26T18:36:24;9.70;34.60
27492;DHT22;14927;51.210;6.838;2023-02-26T18:39:17;9.60;35.40
27492;DHT22;14927;51.210;6.838;2023-02-26T18:42:03;9.60;34.80
27492;DHT22;14927;51.210;6.838;2023-02-26T18:44:48;9.50;35.00
27492;DHT22;14927;51.210;6.838;2023-02-26T18:47:37;9.50;35.10
27492;DHT22;14927;51.210;6.838;2023-02-26T18:50:22;9.40;35.20
27492;DHT22;14927;51.210;6.838;2023-02-26T18:56:07;9.40;35.40
27492;DHT22;14927;51.210;6.838;2023-02-26T18:58:53;9.30;35.50
27492;DHT22;14927;51.210;6.838;2023-02-26T19:01:38;9.20;35.60
27492;DHT22;14927;51.210;6.838;2023-02-26T19:04:23;9.20;35.60
27492;DHT22;14927;51.210;6.838;2023-02-26T19:07:11;9.20;35.80
27492;DHT22;14927;51.210;6.838;2023-02-26T19:09:55;9.10;35.90
27492;DHT22;14927;51.210;6.838;2023-02-26T19:12:43;9.10;36.00
27492;DHT22;14927;51.210;6.838;2023-02-26T19:15:28;9.00;36.10
27492;DHT22;14927;51.210;6.838;2023-02-26T19:18:13;9.00;36.30
27492;DHT22;14927;51.210;6.838;2023-02-26T19:20:58;9.00;36.50
27492;DHT22;14927;51.210;6.838;2023-02-26T19:23:44;8.90;36.60
27492;DHT22;14927;51.210;6.838;2023-02-26T19:26:30;8.90;36.80
27492;DHT22;14927;51.210;6.838;2023-02-26T19:29:19;8.90;36.90
27492;DHT22;14927;51.210;6.838;2023-02-26T19:32:05;8.80;37.00
27492;DHT22;14927;51.210;6.838;2023-02-26T19:34:51;8.80;37.10
27492;DHT22;14927;51.210;6.838;2023-02-26T19:37:38;8.80;37.20
27492;DHT22;14927;51.210;6.838;2023-02-26T19:40:23;8.70;37.30
27492;DHT22;14927;51.210;6.838;2023-02-26T19:43:08;8.80;37.70
27492;DHT22;14927;51.210;6.838;2023-02-26T19:45:54;8.80;37.90
27492;DHT22;14927;51.210;6.838;2023-02-26T19:48:41;8.80;37.90
27492;DHT22;14927;51.210;6.838;2023-02-26T19:51:26;8.70;37.90
27492;DHT22;14927;51.210;6.838;2023-02-26T19:54:11;8.70;37.90
27492;DHT22;14927;51.210;6.838;2023-02-26T20:00:05;8.50;38.00
27492;DHT22;14927;51.210;6.838;2023-02-26T20:02:57;8.80;38.30
27492;DHT22;14927;51.210;6.838;2023-02-26T20:05:53;8.70;38.40
27492;DHT22;14927;51.210;6.838;2023-02-26T20:08:49;8.80;38.70
27492;DHT22;14927;51.210;6.838;2023-02-26T20:11:34;8.70;38.70
27492;DHT22;14927;51.210;6.838;2023-02-26T20:14:42;8.70;38.80
27492;DHT22;14927;51.210;6.838;2023-02-26T20:17:36;8.70;38.90
27492;DHT22;14927;51.210;6.838;2023-02-26T20:20:27;8.60;39.30
27492;DHT22;14927;51.210;6.838;2023-02-26T20:23:19;8.40;39.10
27492;DHT22;14927;51.210;6.838;2023-02-26T20:26:06;8.70;39.30
27492;DHT22;14927;51.210;6.838;2023-02-26T20:28:55;8.60;39.40
27492;DHT22;14927;51.210;6.838;2023-02-26T20:31:40;8.60;39.50
27492;DHT22;14927;51.210;6.838;2023-02-26T20:34:28;8.60;39.80
27492;DHT22;14927;51.210;6.838;2023-02-26T20:37:13;8.60;40.00
27492;DHT22;14927;51.210;6.838;2023-02-26T20:39:58;8.60;40.00
27492;DHT22;14927;51.210;6.838;2023-02-26T20:42:42;8.60;40.00
27492;DHT22;14927;51.210;6.838;2023-02-26T20:45:27;8.60;40.10
27492;DHT22;14927;51.210;6.838;2023-02-26T20:48:13;8.60;40.20
27492;DHT22;14927;51.210;6.838;2023-02-26T20:51:02;8.60;40.40